< Cyclone 198302 1983 Season Cyclone 198304 >
Cyclone 198303 (ELINOR)
General InformationTrack Information on Google MapsList of All Images || ResourceGoogle EarthGE AnimationAtom FeedGeoJSON
Detalied Best Track (Time Zone = UTC)
Year Month Day Hour Lat. Long. Pressure (hPa) Wind (kt) Class Image Chart
1983 2 10 18 -10.5 158.0 1007 0 0 Image --
1983 2 11 00 -10.6 157.8 1008 0 0 Image --
1983 2 11 06 -10.6 157.7 1005 0 0 Image --
1983 2 11 12 -10.7 157.5 1005 0 0 Image --
1983 2 11 18 -10.7 157.2 1005 0 0 Image --
1983 2 12 00 -10.9 157.0 1006 0 0 Image --
1983 2 12 06 -11.6 156.7 1002 0 0 Image --
1983 2 12 12 -12.5 156.4 1002 0 0 Image --
1983 2 12 18 -13.1 156.3 1002 0 0 Image --
1983 2 13 00 -13.5 156.1 1002 0 0 Image --
1983 2 13 06 -13.9 155.9 1000 0 0 Image --
1983 2 13 12 -14.3 155.7 998 0 0 Image --
1983 2 13 18 -14.9 155.4 992 0 0 Image --
1983 2 14 00 -15.2 154.8 988 0 0 Image --
1983 2 14 06 -15.5 154.4 978 0 0 Image --
1983 2 14 12 -15.7 154.6 970 0 0 Image --
1983 2 14 18 -15.9 155.0 968 0 0 Image --
1983 2 15 00 -16.3 155.5 966 0 0 Image --
1983 2 15 06 -16.5 155.9 966 0 0 Image --
1983 2 15 12 -17.0 156.3 966 0 0 Image --
1983 2 15 18 -17.6 156.5 970 0 0 Image --
1983 2 16 00 -18.2 156.3 974 0 0 Image --
1983 2 16 06 -18.6 155.1 976 0 0 Image --
1983 2 16 12 -18.4 153.9 978 0 0 Image --
1983 2 16 18 -18.1 153.0 980 0 0 Image --
1983 2 17 00 -17.6 152.2 982 0 0 Image --
1983 2 17 06 -17.4 151.7 984 0 0 Image --
1983 2 17 12 -17.2 151.1 986 0 0 Image --
1983 2 17 18 -17.1 150.7 987 0 0 Image --
1983 2 18 00 -16.9 150.4 988 0 0 Image --
1983 2 18 06 -16.7 150.2 990 0 0 Image --
1983 2 18 12 -16.4 149.7 990 0 0 Image --
1983 2 18 18 -15.8 149.4 990 0 0 Image --
1983 2 19 00 -15.2 149.3 990 0 0 Image --
1983 2 19 06 -15.1 149.6 990 0 0 Image --
1983 2 19 12 -14.9 149.8 989 0 0 Image --
1983 2 19 18 -14.9 150.3 988 0 0 Image --
1983 2 20 00 -14.9 151.0 987 0 0 Image --
1983 2 20 06 -14.9 151.7 985 0 0 Image --
1983 2 20 12 -15.1 152.6 983 0 0 Image --
1983 2 20 18 -15.6 153.5 981 0 0 Image --
1983 2 21 00 -16.0 154.3 979 0 0 Image --
1983 2 21 06 -16.3 155.3 976 0 0 Image --
1983 2 21 12 -16.1 156.2 972 0 0 Image --
1983 2 21 18 -16.0 156.9 968 0 0 Image --
1983 2 22 00 -15.8 157.3 962 0 0 Image --
1983 2 22 06 -15.7 157.8 956 0 0 Image --
1983 2 22 12 -15.7 158.0 950 0 0 Image --
1983 2 22 18 -15.8 157.9 948 0 0 Image --
1983 2 23 00 -15.9 157.8 947 0 0 Image --
1983 2 23 06 -16.1 157.6 947 0 0 Image --
1983 2 23 12 -16.1 157.3 947 0 0 Image --
1983 2 23 18 -16.1 156.9 951 0 0 Image --
1983 2 24 00 -16.0 156.5 955 0 0 Image --
1983 2 24 06 -15.9 156.0 955 0 0 Image --
1983 2 24 12 -15.7 155.6 951 0 0 Image --
1983 2 24 18 -15.7 155.2 945 0 0 Image --
1983 2 25 00 -15.7 154.6 939 0 0 Image --
1983 2 25 06 -15.9 154.0 937 0 0 Image --
1983 2 25 12 -16.0 153.2 936 0 0 Image --
1983 2 25 18 -16.0 152.6 936 0 0 Image --
1983 2 26 00 -16.1 152.1 935 0 0 Image --
1983 2 26 06 -16.2 151.7 936 0 0 Image --
1983 2 26 12 -16.1 151.2 940 0 0 Image --
1983 2 26 18 -16.1 151.0 946 0 0 Image --
1983 2 27 00 -16.0 150.8 954 0 0 Image --
1983 2 27 06 -16.0 151.0 958 0 0 Image --
1983 2 27 12 -16.1 151.2 962 0 0 Image --
1983 2 27 18 -16.4 151.5 966 0 0 Image --
1983 2 28 00 -16.7 151.8 970 0 0 Image --
1983 2 28 06 -17.0 152.0 974 0 0 Image --
1983 2 28 12 -17.4 152.1 976 0 0 Image --
1983 2 28 18 -17.9 152.2 977 0 0 Image --
1983 2 28 21 -18.1 152.2 978 0 0 Image --
1983 3 1 00 -18.4 152.1 978 0 0 Image --
1983 3 1 03 -18.6 152.1 978 0 0 Image --
1983 3 1 06 -18.8 152.0 979 0 0 Image --
1983 3 1 09 -19.0 151.9 979 0 0 Image --
1983 3 1 12 -19.2 151.7 980 0 0 Image --
1983 3 1 15 -19.5 151.4 980 0 0 Image --
1983 3 1 18 -19.7 151.2 981 0 0 Image --
1983 3 1 21 -20.1 151.0 981 0 0 Image --
1983 3 2 00 -20.3 150.8 981 0 0 Image --
1983 3 2 03 -20.7 150.8 981 0 0 Image --
1983 3 2 06 -21.0 150.9 980 0 0 Image --
1983 3 2 09 -21.2 150.9 980 0 0 Image --
1983 3 2 12 -21.5 150.8 980 0 0 Image --
1983 3 2 15 -21.6 150.7 980 0 0 Image --
1983 3 2 18 -21.7 150.7 990 0 0 Image --
1983 3 2 21 -21.9 150.6 994 0 0 Image --
1983 3 3 00 -21.9 150.5 995 0 0 Image --
1983 3 3 03 -21.8 150.4 996 0 0 Image --
1983 3 3 06 -21.8 150.5 996 0 0 Image --
1983 3 3 09 -21.7 150.7 997 0 0 Image --
1983 3 3 12 -21.7 150.6 997 0 0 Image --
1983 3 3 15 -21.7 150.3 998 0 0 Image --
1983 3 3 18 -21.7 149.9 999 0 0 Image --
1983 3 3 21 -21.7 149.6 1000 0 0 Image --
< Cyclone 198302 1983 Season Cyclone 198304 >

Help